Time;durP1;ratioP1;P1;durP2;ratioP2;P2;SDS_P1;SDS_P2;PMS_P1;PMS_P2;Temp;Humidity;BMP_temperature;BMP_pressure;BME280_temperature;BME280_humidity;BME280_pressure;Samples;Min_cycle;Max_cycle;Signal;HPM_P1;HPM_P2
2023/01/09 00:00:14;;;;;;;99.20;41.28;;;;;;;4.56;72.60;97414.91;4966592;28;20391;-71
2023/01/09 00:02:40;;;;;;;94.93;40.97;;;;;;;4.53;72.43;97420.13;4966528;28;20121;-70
2023/01/09 00:05:10;;;;;;;88.55;37.85;;;;;;;4.50;72.68;97420.69;4966378;28;20110;-70
2023/01/09 00:07:35;;;;;;;;;;;;;;;4.49;72.56;97406.28;4967676;28;20031;-70
2023/01/09 00:10:00;;;;;;;57.42;29.55;;;;;;;4.50;72.84;97401.66;4967101;28;19921;-70
2023/01/09 00:12:25;;;;;;;58.20;28.63;;;;;;;4.49;72.97;97408.19;4974280;28;20465;-70
2023/01/09 00:14:51;;;;;;;53.53;27.15;;;;;;;4.49;72.66;97408.19;4967399;28;20034;-71
2023/01/09 00:17:16;;;;;;;51.03;25.33;;;;;;;4.47;72.97;97394.91;4964810;28;20052;-71
2023/01/09 00:19:42;;;;;;;46.17;24.08;;;;;;;4.49;72.92;97397.34;4967853;28;20121;-71
2023/01/09 00:22:08;;;;;;;45.10;23.50;;;;;;;4.49;73.52;97398.13;4966445;28;20555;-71
2023/01/09 00:24:35;;;;;;;48.92;23.73;;;;;;;4.53;73.23;97398.38;4968180;28;20109;-71
2023/01/09 00:27:01;;;;;;;45.75;24.80;;;;;;;4.55;73.46;97402.44;4966583;28;20042;-70
2023/01/09 00:29:26;;;;;;;46.92;25.05;;;;;;;4.56;73.60;97395.13;4966723;28;20038;-71
2023/01/09 00:31:51;;;;;;;49.08;27.63;;;;;;;4.55;73.33;97405.16;4966565;28;20027;-70
2023/01/09 00:34:17;;;;;;;50.67;26.50;;;;;;;4.55;73.76;97396.22;4964613;28;20391;-70
2023/01/09 00:36:42;;;;;;;53.10;26.88;;;;;;;4.56;73.41;97398.63;4965943;28;20558;-70
2023/01/09 00:39:08;;;;;;;52.53;26.95;;;;;;;4.57;73.69;97394.03;4966483;28;20102;-70
2023/01/09 00:41:45;;;;;;;47.38;27.17;;;;;;;4.58;73.66;97391.00;4966701;28;20027;-70
2023/01/09 00:44:16;;;;;;;47.00;25.17;;;;;;;4.59;73.50;97389.13;4965925;28;20497;-70
2023/01/09 00:46:46;;;;;;;43.08;23.50;;;;;;;4.59;74.07;97392.63;4966312;28;20027;-70
2023/01/09 00:49:13;;;;;;;;;;;;;;;4.62;73.59;97393.97;4964761;28;20011;-70
2023/01/09 00:51:40;;;;;;;50.83;25.27;;;;;;;4.59;73.52;97395.34;4966076;28;20000;-70
2023/01/09 00:54:06;;;;;;;53.42;27.05;;;;;;;4.59;74.06;97394.56;4965448;28;20211;-70
2023/01/09 00:56:34;;;;;;;41.63;24.10;;;;;;;4.58;74.07;97396.44;4966289;28;20522;-70
2023/01/09 00:58:59;;;;;;;43.80;23.10;;;;;;;4.61;74.27;97385.00;4965356;28;20023;-70
2023/01/09 01:01:24;;;;;;;45.78;23.70;;;;;;;4.64;74.33;97380.09;4985952;28;20872;-70
2023/01/09 01:03:50;;;;;;;45.17;24.70;;;;;;;4.65;73.69;97389.88;4967570;28;20049;-70
2023/01/09 01:08:59;;;;;;;48.25;26.02;;;;;;;4.62;74.20;97385.84;4964950;28;20054;-70
2023/01/09 01:11:25;;;;;;;44.85;24.52;;;;;;;4.64;74.07;97386.38;4966230;28;20027;-70
2023/01/09 01:13:50;;;;;;;50.08;26.52;;;;;;;4.63;74.05;97379.31;4966379;28;20029;-71
2023/01/09 01:16:17;;;;;;;47.75;27.58;;;;;;;4.63;73.75;97392.88;4965861;28;20041;-70
2023/01/09 01:18:42;;;;;;;46.75;25.90;;;;;;;4.64;74.29;97386.38;4965997;28;20595;-71
2023/01/09 01:21:10;;;;;;;46.28;25.15;;;;;;;4.67;74.12;97391.22;4963897;28;20045;-71
2023/01/09 01:23:37;;;;;;;44.83;24.20;;;;;;;4.69;74.06;97388.22;4965404;28;20084;-71
2023/01/09 01:26:14;;;;;;;42.83;24.33;;;;;;;4.66;74.20;97388.78;4963343;28;20034;-69
2023/01/09 01:28:40;;;;;;;41.28;23.23;;;;;;;4.67;73.78;97374.94;4979505;28;20135;-69
2023/01/09 01:31:05;;;;;;;50.25;27.33;;;;;;;4.67;73.84;97360.53;4969011;28;20027;-69
2023/01/09 01:33:32;;;;;;;50.22;26.92;;;;;;;4.67;74.34;97360.53;4968765;28;20138;-69
2023/01/09 01:36:05;;;;;;;55.05;29.08;;;;;;;4.65;74.35;97355.41;4968972;28;20038;-70
2023/01/09 01:38:32;;;;;;;62.95;31.45;;;;;;;4.62;73.88;97364.09;4970033;28;20475;-69
2023/01/09 01:40:57;;;;;;;65.72;31.70;;;;;;;4.57;73.69;97364.94;4968680;28;20100;-69
2023/01/09 01:43:23;;;;;;;63.22;30.25;;;;;;;4.56;73.67;97359.81;4968159;28;20090;-69
2023/01/09 01:45:49;;;;;;;56.40;27.17;;;;;;;4.53;74.27;97368.53;4968308;28;20031;-69
2023/01/09 01:48:25;;;;;;;47.97;25.27;;;;;;;4.52;74.27;97380.47;4968625;28;20034;-69
2023/01/09 01:50:55;;;;;;;52.03;26.77;;;;;;;4.49;73.88;97376.41;4968203;28;20109;-70
2023/01/09 01:53:23;;;;;;;;;;;;;;;4.47;74.32;97382.13;4969677;28;20475;-69
2023/01/09 01:56:09;;;;;;;51.40;25.88;;;;;;;4.44;73.57;97379.97;4968364;28;19934;-69
2023/01/09 01:58:50;;;;;;;49.38;24.42;;;;;;;4.40;73.87;97361.84;4967678;28;20049;-69
2023/01/09 02:01:17;;;;;;;41.03;23.30;;;;;;;4.38;74.44;97364.03;4967979;28;20038;-69
2023/01/09 02:03:43;;;;;;;40.85;22.10;;;;;;;4.35;74.36;97356.44;4969051;28;20038;-69
2023/01/09 02:06:11;;;;;;;38.38;21.98;;;;;;;4.36;74.13;97360.78;4968369;28;20479;-69
2023/01/09 02:08:37;;;;;;;34.70;20.67;;;;;;;4.38;74.30;97372.97;4968353;28;20041;-69
2023/01/09 02:11:04;;;;;;;39.53;21.67;;;;;;;4.40;73.97;97361.84;4967977;28;20062;-69
2023/01/09 02:13:32;;;;;;;45.33;24.40;;;;;;;4.37;74.58;97357.78;4984397;28;20031;-69
2023/01/09 02:16:19;;;;;;;46.88;24.73;;;;;;;4.38;74.74;97361.31;4966600;28;20034;-70
2023/01/09 02:18:53;;;;;;;48.78;23.77;;;;;;;4.41;74.55;97355.31;4969396;28;20042;-68
2023/01/09 02:21:45;;;;;;;41.25;23.20;;;;;;;4.39;74.63;97352.88;4968034;28;20027;-69
2023/01/09 02:24:26;;;;;;;43.35;21.52;;;;;;;4.37;74.66;97344.19;4968645;28;20026;-69
2023/01/09 02:27:03;;;;;;;46.08;23.77;;;;;;;4.36;74.35;97341.78;4968443;28;20034;-69
2023/01/09 02:29:37;;;;;;;43.45;23.45;;;;;;;4.36;74.64;97328.19;4967053;28;20034;-69
2023/01/09 02:32:36;;;;;;;47.72;25.30;;;;;;;4.32;74.59;97317.91;4967790;28;21506;-69
2023/01/09 02:35:18;;;;;;;54.53;28.33;;;;;;;4.33;74.65;97313.28;4988012;28;20021;-68
2023/01/09 02:37:59;;;;;;;51.38;27.90;;;;;;;4.32;74.64;97306.22;4968806;28;20030;-69
2023/01/09 02:40:53;;;;;;;50.80;27.55;;;;;;;4.29;73.97;97290.50;4972472;28;20042;-69
2023/01/09 02:43:19;;;;;;;54.50;29.10;;;;;;;4.29;74.75;97299.47;4971163;28;20158;-69
2023/01/09 02:45:44;;;;;;;53.05;29.20;;;;;;;4.27;74.12;97309.00;4968179;28;20094;-69
2023/01/09 02:48:10;;;;;;;55.78;29.60;;;;;;;4.23;74.69;97308.75;4968302;28;20022;-69
2023/01/09 02:50:52;;;;;;;53.40;28.45;;;;;;;4.20;74.10;97306.59;4964920;28;20471;-69
2023/01/09 02:53:46;;;;;;;47.20;26.02;;;;;;;4.20;74.25;97308.50;4963916;28;20046;-69
2023/01/09 02:56:27;;;;;;;49.80;25.35;;;;;;;4.19;74.00;97307.69;4969263;28;20050;-69
2023/01/09 02:59:16;;;;;;;46.38;25.30;;;;;;;4.17;73.82;97304.44;4966230;28;20043;-68
2023/01/09 03:01:51;;;;;;;50.67;26.45;;;;;;;4.14;74.38;97305.00;4967294;28;20771;-69
2023/01/09 03:04:53;;;;;;;46.83;25.88;;;;;;;4.12;73.90;97299.88;4968133;28;20073;-68
2023/01/09 03:07:33;;;;;;;48.78;25.50;;;;;;;4.13;74.48;97285.22;4966801;28;20054;-69
2023/01/09 03:10:16;;;;;;;52.13;30.02;;;;;;;4.10;74.24;97283.06;4964857;28;20022;-70
2023/01/09 03:12:43;;;;;;;53.83;30.05;;;;;;;4.10;73.94;97276.81;4966547;28;20494;-68
2023/01/09 03:15:13;;;;;;;60.65;32.20;;;;;;;4.08;74.64;97284.44;4965854;28;20030;-69
2023/01/09 03:17:44;;;;;;;56.05;29.95;;;;;;;4.06;74.25;97276.59;4967125;28;20507;-69
2023/01/09 03:20:12;;;;;;;51.15;28.52;;;;;;;4.01;73.84;97268.47;4966180;28;20034;-69
2023/01/09 03:22:39;;;;;;;48.60;26.13;;;;;;;3.96;74.79;97263.91;4967164;28;20023;-69
2023/01/09 03:25:05;;;;;;;52.85;27.95;;;;;;;3.93;73.69;97256.34;4967128;28;20514;-69
2023/01/09 03:27:31;;;;;;;55.22;28.83;;;;;;;3.91;74.22;97246.84;4965837;28;20047;-69
2023/01/09 03:29:56;;;;;;;52.50;29.65;;;;;;;3.87;74.16;97241.19;4967277;28;20015;-68
2023/01/09 03:32:22;;;;;;;56.50;29.88;;;;;;;3.84;74.50;97236.31;4966187;28;20027;-69
2023/01/09 03:34:47;;;;;;;57.60;29.13;;;;;;;3.79;73.68;97237.19;4967381;28;20027;-69
2023/01/09 03:37:13;;;;;;;55.83;28.80;;;;;;;3.77;74.61;97242.06;4966701;28;20029;-69
2023/01/09 03:39:38;;;;;;;54.90;29.40;;;;;;;3.75;74.22;97238.84;4966896;28;20148;-69
2023/01/09 03:42:04;;;;;;;53.00;29.00;;;;;;;3.75;74.27;97229.88;4967432;28;20023;-69
2023/01/09 03:44:29;;;;;;;56.03;28.67;;;;;;;3.71;74.09;97216.88;4967891;28;20471;-69
2023/01/09 03:46:54;;;;;;;54.30;29.80;;;;;;;3.69;74.29;97216.34;4967275;28;20102;-69
2023/01/09 03:49:20;;;;;;;59.22;30.77;;;;;;;3.68;73.82;97214.72;4967211;28;20383;-69
2023/01/09 03:51:45;;;;;;;55.42;30.05;;;;;;;3.64;73.79;97215.56;4965683;28;20034;-69
2023/01/09 03:54:11;;;;;;;65.28;34.78;;;;;;;3.58;74.42;97220.25;4967099;28;20030;-69
2023/01/09 03:56:36;;;;;;;59.85;32.33;;;;;;;3.43;73.77;97213.00;4973178;28;20036;-69
2023/01/09 03:59:02;;;;;;;61.13;34.38;;;;;;;3.30;73.95;97211.72;4967057;28;20416;-69
2023/01/09 04:01:27;;;;;;;69.13;36.20;;;;;;;3.23;74.47;97201.19;4970109;28;20035;-69
2023/01/09 04:03:52;;;;;;;64.05;34.58;;;;;;;3.24;73.99;97207.44;4972498;28;20077;-69
2023/01/09 04:06:18;;;;;;;66.57;34.75;;;;;;;3.26;75.15;97207.97;4967300;28;20027;-69
2023/01/09 04:08:45;;;;;;;69.75;36.05;;;;;;;3.29;74.97;97196.53;4965735;28;20034;-69
2023/01/09 04:11:10;;;;;;;68.47;35.92;;;;;;;3.31;75.06;97202.47;4966872;28;20037;-69
2023/01/09 04:13:36;;;;;;;62.72;34.20;;;;;;;3.33;75.23;97186.75;4967123;28;20379;-69
2023/01/09 04:16:01;;;;;;;63.60;33.72;;;;;;;3.37;74.58;97193.25;4966711;28;20147;-69
2023/01/09 04:18:26;;;;;;;59.58;33.03;;;;;;;3.40;75.25;97192.69;4966686;28;20038;-69
2023/01/09 04:20:52;;;;;;;57.55;32.17;;;;;;;3.42;74.68;97182.38;4966572;28;20396;-69
2023/01/09 04:23:17;;;;;;;60.90;33.58;;;;;;;3.43;74.99;97189.41;4966703;28;20083;-69
2023/01/09 04:25:43;;;;;;;58.65;33.65;;;;;;;3.49;75.31;97175.84;4966522;28;20030;-69
2023/01/09 04:28:08;;;;;;;61.17;33.15;;;;;;;3.53;75.21;97166.03;4967018;28;20469;-69
2023/01/09 04:30:34;;;;;;;60.55;33.35;;;;;;;3.57;75.02;97162.47;4966561;28;20589;-69
2023/01/09 04:32:59;;;;;;;61.35;32.03;;;;;;;3.62;74.76;97155.41;4967194;28;20613;-68
2023/01/09 04:35:24;;;;;;;54.17;30.83;;;;;;;3.66;75.21;97145.63;4967001;28;20110;-69
2023/01/09 04:37:50;;;;;;;63.78;32.47;;;;;;;3.71;74.99;97149.06;4967105;28;20084;-69
2023/01/09 04:40:15;;;;;;;61.95;32.78;;;;;;;3.78;75.33;97140.63;4966904;28;20019;-69
2023/01/09 04:42:41;;;;;;;58.35;30.88;;;;;;;3.83;75.35;97137.88;4967957;28;20468;-69
2023/01/09 04:45:09;;;;;;;58.88;31.45;;;;;;;3.87;74.84;97135.41;4965762;28;20368;-69
2023/01/09 04:47:34;;;;;;;63.78;33.38;;;;;;;3.85;74.88;97130.28;4966552;28;20027;-69
2023/01/09 04:50:00;;;;;;;61.78;33.67;;;;;;;3.85;74.62;97134.88;4966735;28;20533;-69
2023/01/09 04:52:26;;;;;;;63.33;34.75;;;;;;;3.84;75.02;97131.38;4966633;28;20132;-69
2023/01/09 04:54:51;;;;;;;64.00;35.05;;;;;;;3.83;74.59;97129.75;4966628;28;20814;-69
2023/01/09 04:57:17;;;;;;;68.25;34.97;;;;;;;3.82;75.08;97130.00;4984504;28;20172;-69
2023/01/09 04:59:42;;;;;;;61.75;33.83;;;;;;;3.83;74.84;97126.22;4966689;28;20802;-69
2023/01/09 05:02:08;;;;;;;65.85;35.38;;;;;;;3.81;74.78;97115.66;4966808;28;20019;-69
2023/01/09 05:04:35;;;;;;;61.42;34.55;;;;;;;3.80;75.05;97119.47;4969130;28;20112;-69
2023/01/09 05:07:00;;;;;;;63.28;35.03;;;;;;;3.82;75.18;97111.03;4969976;28;20019;-69
2023/01/09 05:09:26;;;;;;;61.97;33.70;;;;;;;3.81;75.22;97101.28;4969579;28;20062;-69
2023/01/09 05:11:51;;;;;;;66.40;35.63;;;;;;;3.83;74.92;97108.06;4972714;28;20030;-69
2023/01/09 05:14:17;;;;;;;66.07;35.80;;;;;;;3.82;75.35;97101.00;4969748;28;20091;-69
2023/01/09 05:16:42;;;;;;;63.97;36.00;;;;;;;3.81;75.62;97102.09;4968309;28;20042;-69
2023/01/09 05:19:07;;;;;;;64.90;35.78;;;;;;;3.81;75.06;97106.69;4976374;28;20524;-69
2023/01/09 05:21:33;;;;;;;66.78;36.20;;;;;;;3.80;74.75;97094.22;4969353;28;20030;-69
2023/01/09 05:23:58;;;;;;;62.33;34.85;;;;;;;3.78;75.57;97097.25;4969794;28;20051;-69
2023/01/09 05:26:24;;;;;;;68.13;35.53;;;;;;;3.80;75.85;97094.22;4985891;28;20395;-69
2023/01/09 05:28:55;;;;;;;66.07;35.63;;;;;;;3.83;75.57;97097.19;4969443;28;20770;-69
2023/01/09 05:31:22;;;;;;;63.15;34.92;;;;;;;3.91;75.32;97094.94;4969143;28;20019;-70
2023/01/09 05:33:47;;;;;;;66.03;34.95;;;;;;;3.97;75.83;97091.09;4968987;28;20077;-71
2023/01/09 05:36:13;;;;;;;71.63;36.58;;;;;;;4.04;75.14;97088.84;4968972;28;20342;-70
2023/01/09 05:38:39;;;;;;;70.70;36.22;;;;;;;4.11;75.52;97086.59;4967991;28;20037;-70
2023/01/09 05:41:04;;;;;;;67.15;37.08;;;;;;;4.17;75.65;97079.22;4968727;28;20525;-70
2023/01/09 05:43:30;;;;;;;72.00;38.83;;;;;;;4.24;75.95;97079.69;4969060;28;20104;-70
2023/01/09 05:45:55;;;;;;;70.10;36.90;;;;;;;4.29;76.26;97084.22;4967840;28;20372;-70
2023/01/09 05:48:21;;;;;;;67.45;37.55;;;;;;;4.34;75.24;97076.03;4969254;28;20035;-71
2023/01/09 05:50:46;;;;;;;63.22;35.00;;;;;;;4.38;75.78;97081.69;4974133;28;20039;-70
2023/01/09 05:53:12;;;;;;;65.10;35.08;;;;;;;4.43;75.86;97074.28;4968026;28;20027;-70
2023/01/09 05:55:37;;;;;;;68.90;35.15;;;;;;;4.46;75.41;97076.44;4968819;28;20084;-70
2023/01/09 05:58:02;;;;;;;62.35;33.45;;;;;;;4.46;75.38;97076.44;4968025;28;20054;-71
2023/01/09 06:00:28;;;;;;;61.83;32.55;;;;;;;4.51;75.95;97080.97;4968351;28;20126;-71
2023/01/09 06:02:53;;;;;;;67.10;33.88;;;;;;;4.56;75.97;97080.13;4969602;28;20035;-70
2023/01/09 06:05:19;;;;;;;67.05;34.70;;;;;;;4.60;76.07;97081.97;4972296;28;20039;-71
2023/01/09 06:07:44;;;;;;;62.17;33.10;;;;;;;4.67;75.79;97075.38;5045022;28;20094;-70
2023/01/09 06:10:11;;;;;;;64.78;34.17;;;;;;;4.72;75.86;97076.09;5018359;28;20110;-70
2023/01/09 06:12:37;;;;;;;63.00;33.22;;;;;;;4.78;76.14;97079.56;4970095;28;20037;-71
2023/01/09 06:15:04;;;;;;;67.43;35.47;;;;;;;4.85;75.54;97073.75;5006864;28;20021;-71
2023/01/09 06:17:29;;;;;;;71.75;34.17;;;;;;;4.90;76.23;97069.06;5071508;28;20481;-71
2023/01/09 06:19:54;;;;;;;68.18;34.38;;;;;;;4.92;75.89;97066.06;5071701;28;20040;-71
2023/01/09 06:22:20;;;;;;;67.82;34.60;;;;;;;4.92;75.80;97064.13;5010952;28;20035;-70
2023/01/09 06:24:45;;;;;;;67.95;37.35;;;;;;;4.94;75.87;97065.75;4968532;28;20463;-71
2023/01/09 06:27:11;;;;;;;65.65;37.65;;;;;;;4.97;75.71;97071.44;4979917;28;20053;-71
2023/01/09 06:29:37;;;;;;;67.55;37.17;;;;;;;4.99;75.69;97066.50;4990274;28;20077;-73
2023/01/09 06:32:03;;;;;;;71.60;39.25;;;;;;;5.03;75.96;97064.00;4994091;28;20109;-73
2023/01/09 06:34:28;;;;;;;69.50;39.33;;;;;;;5.03;75.61;97064.81;4970931;28;20027;-73
2023/01/09 06:36:54;;;;;;;64.45;38.35;;;;;;;5.07;75.99;97065.03;4969306;28;20023;-71
2023/01/09 06:39:19;;;;;;;64.35;37.75;;;;;;;5.12;76.22;97073.09;4984757;28;20066;-71
2023/01/09 06:41:45;;;;;;;59.38;36.38;;;;;;;5.16;76.02;97074.13;4966893;28;20523;-71
2023/01/09 06:44:10;;;;;;;62.00;34.40;;;;;;;5.19;76.36;97070.84;4969929;28;20038;-71
2023/01/09 06:46:35;;;;;;;59.60;34.47;;;;;;;5.24;75.83;97077.28;5013984;28;20025;-73
2023/01/09 06:49:01;;;;;;;63.47;36.50;;;;;;;5.28;76.05;97078.31;4981293;28;20467;-71
2023/01/09 06:51:26;;;;;;;64.63;36.08;;;;;;;5.32;76.12;97071.16;4967043;28;20037;-72
2023/01/09 06:53:52;;;;;;;58.42;34.30;;;;;;;5.36;75.74;97078.44;4967441;28;20033;-72
2023/01/09 06:56:18;;;;;;;61.67;34.58;;;;;;;5.39;76.01;97084.41;4967403;28;20053;-72
2023/01/09 06:58:44;;;;;;;59.90;34.17;;;;;;;5.40;75.93;97086.03;4966335;28;20031;-72
2023/01/09 07:01:09;;;;;;;61.97;34.30;;;;;;;5.43;76.02;97090.88;4967135;28;20029;-71
2023/01/09 07:03:35;;;;;;;62.60;32.80;;;;;;;5.44;75.57;97092.47;4968172;28;20088;-72
2023/01/09 07:06:00;;;;;;;62.72;34.95;;;;;;;5.47;75.63;97094.59;4966620;28;20026;-73
2023/01/09 07:08:26;;;;;;;67.47;36.00;;;;;;;5.51;76.21;97098.31;4967090;28;20031;-71
2023/01/09 07:10:51;;;;;;;67.28;35.88;;;;;;;5.55;76.29;97093.91;5002873;28;20028;-72
2023/01/09 07:13:16;;;;;;;68.95;37.50;;;;;;;5.60;75.66;97093.03;5010942;28;20110;-72
2023/01/09 07:15:42;;;;;;;64.57;35.00;;;;;;;5.64;76.41;97094.84;4965776;28;20034;-72
2023/01/09 07:18:07;;;;;;;66.53;36.97;;;;;;;5.70;76.37;97092.88;4989599;28;20037;-72
2023/01/09 07:20:33;;;;;;;64.93;36.10;;;;;;;5.75;76.48;97091.97;4993385;28;20105;-70
2023/01/09 07:22:58;;;;;;;67.18;37.33;;;;;;;5.79;76.29;97093.00;4996617;28;20034;-70
2023/01/09 07:25:24;;;;;;;59.22;33.58;;;;;;;5.83;76.10;97080.41;4962320;28;20019;-70
2023/01/09 07:27:49;;;;;;;56.63;30.73;;;;;;;5.87;76.39;97086.88;4992540;28;20034;-70
2023/01/09 07:30:15;;;;;;;49.13;28.00;;;;;;;5.92;76.79;97077.78;4995995;28;20631;-67
2023/01/09 07:32:41;;;;;;;41.80;24.35;;;;;;;6.00;76.50;97087.16;5011726;28;20032;-66
2023/01/09 07:35:08;;;;;;;43.22;23.85;;;;;;;6.05;76.68;97078.94;5009407;28;20475;-68
2023/01/09 07:37:33;;;;;;;40.83;23.58;;;;;;;6.09;76.75;97080.78;5026579;28;20506;-68
2023/01/09 07:39:59;;;;;;;33.45;21.15;;;;;;;6.17;76.44;97075.72;4990628;28;20692;-68
2023/01/09 07:42:24;;;;;;;28.88;17.60;;;;;;;6.22;76.51;97071.00;5041972;28;20423;-68
2023/01/09 07:44:50;;;;;;;25.73;16.38;;;;;;;6.29;77.27;97073.31;4987408;28;20513;-68
2023/01/09 07:47:15;;;;;;;22.30;15.50;;;;;;;6.37;76.98;97069.91;4970470;28;20031;-68
2023/01/09 07:49:41;;;;;;;22.65;15.05;;;;;;;6.45;76.97;97075.75;5030970;28;20871;-70
2023/01/09 07:52:06;;;;;;;23.55;14.60;;;;;;;6.53;77.28;97075.84;4985917;28;20513;-70
2023/01/09 07:54:32;;;;;;;22.67;15.15;;;;;;;6.60;77.03;97071.91;4988326;28;20468;-71
2023/01/09 07:56:57;;;;;;;20.20;13.13;;;;;;;6.68;76.86;97073.91;5000041;28;20041;-70
2023/01/09 07:59:23;;;;;;;17.48;12.93;;;;;;;6.75;77.14;97074.28;5020063;28;20027;-70
2023/01/09 08:01:49;;;;;;;20.50;13.63;;;;;;;6.81;77.03;97053.22;4966340;28;20461;-70
2023/01/09 08:04:14;;;;;;;19.30;15.45;;;;;;;6.88;77.51;97059.03;4997863;28;20387;-71
2023/01/09 08:06:39;;;;;;;21.10;13.88;;;;;;;6.95;77.63;97061.34;4974519;28;20708;-70
2023/01/09 08:09:05;;;;;;;19.80;13.48;;;;;;;6.99;77.27;97057.69;4979414;28;20075;-69
2023/01/09 08:11:31;;;;;;;20.55;14.07;;;;;;;7.06;77.78;97057.28;4987925;28;20144;-69
2023/01/09 08:13:57;;;;;;;18.92;12.90;;;;;;;7.11;77.65;97054.44;5066205;28;20112;-69
2023/01/09 08:16:22;;;;;;;19.33;12.48;;;;;;;7.18;77.44;97054.00;4983881;28;20669;-69
2023/01/09 08:18:47;;;;;;;18.80;12.45;;;;;;;7.23;77.76;97053.06;5021443;28;20035;-69
2023/01/09 08:21:13;;;;;;;19.45;12.63;;;;;;;7.27;77.89;97043.16;4974804;28;20031;-70
2023/01/09 08:23:39;;;;;;;18.80;13.73;;;;;;;7.29;77.81;97044.47;4973712;28;20031;-68
2023/01/09 08:26:05;;;;;;;19.55;13.80;;;;;;;7.34;77.61;97042.72;4974813;28;20732;-71
2023/01/09 08:28:31;;;;;;;21.23;14.13;;;;;;;7.38;77.72;97047.25;4975428;28;20080;-70
2023/01/09 08:30:56;;;;;;;18.98;13.88;;;;;;;7.41;77.39;97046.63;4966131;28;20039;-71
2023/01/09 08:33:21;;;;;;;20.50;12.63;;;;;;;7.45;78.17;97050.38;4963957;28;20375;-72
2023/01/09 08:35:47;;;;;;;21.85;12.43;;;;;;;7.50;77.91;97051.34;4966510;28;20037;-71
2023/01/09 08:38:13;;;;;;;22.45;12.15;;;;;;;7.53;77.79;97053.47;4967693;28;20080;-71
2023/01/09 08:40:40;;;;;;;23.67;11.95;;;;;;;7.56;78.15;97047.34;4970056;28;20034;-72
2023/01/09 08:48:34;;;;;;;23.02;12.35;;;;;;;7.66;77.84;97052.56;4966620;28;20192;-72
2023/01/09 08:50:59;;;;;;;27.70;14.27;;;;;;;7.66;77.48;97058.03;4969195;28;20845;-71
2023/01/09 08:53:25;;;;;;;27.00;14.27;;;;;;;7.66;77.61;97058.03;4968516;28;20023;-72
2023/01/09 08:55:50;;;;;;;25.83;12.82;;;;;;;7.68;77.38;97053.06;4969253;28;20433;-73
2023/01/09 08:58:15;;;;;;;34.50;16.10;;;;;;;7.73;77.91;97057.59;5035931;28;20035;-73
2023/01/09 09:00:41;;;;;;;40.58;22.05;;;;;;;7.77;77.47;97055.03;4995395;28;20156;-73
2023/01/09 09:03:08;;;;;;;45.42;27.42;;;;;;;7.78;77.23;97056.66;4968128;28;20039;-73
2023/01/09 09:05:34;;;;;;;43.75;25.95;;;;;;;7.81;77.81;97054.09;4974800;28;20035;-73
2023/01/09 09:07:59;;;;;;;31.85;20.83;;;;;;;7.84;77.98;97049.94;4979948;28;20532;-72
2023/01/09 09:10:27;;;;;;;25.52;17.17;;;;;;;7.89;78.06;97055.28;4971606;28;20033;-73
2023/01/09 09:12:55;;;;;;;23.50;16.23;;;;;;;7.95;77.92;97056.72;4970198;28;20057;-71
2023/01/09 09:15:24;;;;;;;25.33;15.90;;;;;;;7.97;77.90;97049.03;4969141;28;20027;-71
2023/01/09 09:17:50;;;;;;;25.30;16.30;;;;;;;8.02;77.62;97061.75;4970253;28;20073;-70
2023/01/09 09:20:16;;;;;;;22.05;14.38;;;;;;;8.04;77.73;97057.59;4968977;28;20033;-70
2023/01/09 09:22:41;;;;;;;24.25;15.68;;;;;;;8.09;77.74;97064.84;4970055;28;20027;-71
2023/01/09 09:25:07;;;;;;;25.75;17.92;;;;;;;8.11;78.33;97059.88;4969526;28;20063;-72
2023/01/09 09:27:35;;;;;;;29.98;19.48;;;;;;;8.17;77.99;97055.09;4969424;28;20039;-70
2023/01/09 09:30:01;;;;;;;32.60;20.92;;;;;;;8.22;78.10;97057.66;4970632;28;20039;-70
2023/01/09 09:32:26;;;;;;;30.65;20.52;;;;;;;8.27;78.05;97049.34;4969581;28;20395;-71
2023/01/09 09:34:52;;;;;;;33.47;22.42;;;;;;;8.33;77.81;97052.72;4992262;28;20136;-71
2023/01/09 09:37:17;;;;;;;34.72;23.80;;;;;;;8.40;78.16;97044.06;4982757;28;20031;-70
2023/01/09 09:39:43;;;;;;;39.90;25.67;;;;;;;8.45;77.74;97044.75;4970011;28;20155;-71
2023/01/09 09:45:34;;;;;;;30.60;20.00;;;;;;;8.55;77.78;97049.13;4969780;28;20041;-71
2023/01/09 09:48:14;;;;;;;26.50;18.75;;;;;;;8.59;78.16;97049.28;4982547;28;20035;-71
2023/01/09 09:50:50;;;;;;;25.83;17.73;;;;;;;8.59;77.92;97039.19;4967332;28;20030;-71
2023/01/09 09:53:25;;;;;;;36.60;23.70;;;;;;;8.63;78.53;97040.16;4968165;28;20019;-71
2023/01/09 09:55:51;;;;;;;36.80;23.80;;;;;;;8.61;78.17;97039.66;4967955;28;20043;-72
2023/01/09 09:58:58;;;;;;;40.85;25.48;;;;;;;8.61;78.06;97045.13;4969892;28;20043;-72
2023/01/09 10:01:29;;;;;;;31.60;19.02;;;;;;;8.63;77.94;97031.13;4972396;28;20038;-72
2023/01/09 10:03:59;;;;;;;26.98;18.02;;;;;;;8.63;78.45;97034.69;4972868;28;20058;-71
2023/01/09 10:06:44;;;;;;;24.25;14.25;;;;;;;8.65;77.82;97034.34;4970269;28;20413;-71
2023/01/09 10:09:28;;;;;;;20.38;12.18;;;;;;;8.68;78.09;97032.94;4970712;28;20122;-71
2023/01/09 10:12:08;;;;;;;22.63;13.77;;;;;;;8.69;78.46;97029.88;4975625;28;20180;-70
2023/01/09 10:14:34;;;;;;;23.75;17.73;;;;;;;8.69;77.98;97024.41;4969960;28;20030;-70
2023/01/09 10:17:07;;;;;;;28.70;20.15;;;;;;;8.70;78.05;97027.94;5044439;28;20042;-72
2023/01/09 10:19:44;;;;;;;26.05;19.67;;;;;;;8.70;77.71;97025.22;4970722;28;20039;-72
2023/01/09 10:22:40;;;;;;;27.92;18.05;;;;;;;8.69;77.78;97020.88;4970553;28;20035;-69
2023/01/09 10:25:06;;;;;;;22.20;15.68;;;;;;;8.67;77.79;97023.91;4993482;28;20042;-72
2023/01/09 10:27:49;;;;;;;20.20;14.07;;;;;;;8.67;78.56;97029.38;4970466;28;20019;-73
2023/01/09 10:30:38;;;;;;;19.95;11.80;;;;;;;8.67;77.61;97031.31;4969448;28;20448;-70
2023/01/09 10:33:32;;;;;;;16.55;11.13;;;;;;;8.68;78.47;97027.47;4972394;28;20050;-71
2023/01/09 10:36:10;;;;;;;21.33;14.13;;;;;;;8.70;77.97;97026.00;4969569;28;20050;-71
2023/01/09 10:38:41;;;;;;;16.67;11.48;;;;;;;8.69;78.29;97029.88;4971907;28;20117;-70
2023/01/09 10:41:14;;;;;;;17.08;10.98;;;;;;;8.69;77.71;97032.59;4969302;28;20030;-72
2023/01/09 10:44:04;;;;;;;23.10;17.42;;;;;;;8.70;78.11;97022.47;4969391;28;20498;-70
2023/01/09 10:46:56;;;;;;;21.65;13.45;;;;;;;8.71;78.39;97026.81;4978000;28;20061;-69
2023/01/09 10:49:23;;;;;;;15.25;9.73;;;;;;;8.73;77.75;97032.78;4969113;28;20152;-69
2023/01/09 10:52:01;;;;;;;17.02;10.13;;;;;;;8.73;78.08;97021.84;4968421;28;20031;-68
2023/01/09 10:54:28;;;;;;;16.05;11.45;;;;;;;8.73;78.17;97030.84;4965751;28;20038;-69
2023/01/09 10:57:10;;;;;;;16.88;12.23;;;;;;;8.75;78.11;97016.88;4967422;28;20136;-69
2023/01/09 10:59:35;;;;;;;17.70;10.85;;;;;;;8.74;78.18;97020.72;4964947;28;20037;-70
2023/01/09 11:02:01;;;;;;;17.02;10.40;;;;;;;8.73;78.03;97013.66;4967506;28;20058;-69
2023/01/09 11:04:38;;;;;;;17.20;11.20;;;;;;;8.72;78.06;97022.97;4981793;28;20517;-69
2023/01/09 11:07:17;;;;;;;17.08;8.27;;;;;;;8.70;77.78;97022.47;4968054;28;20092;-70
2023/01/09 11:10:00;;;;;;;15.80;8.23;;;;;;;8.67;78.18;97020.38;4994992;28;20035;-70
2023/01/09 11:12:31;;;;;;;13.10;7.70;;;;;;;8.67;78.59;97020.38;4968921;28;20027;-70
2023/01/09 11:15:14;;;;;;;14.38;7.88;;;;;;;8.64;78.70;97016.34;5010996;28;20054;-69
2023/01/09 11:17:44;;;;;;;13.57;7.90;;;;;;;8.63;78.80;97022.94;5065052;28;20090;-68
2023/01/09 11:20:22;;;;;;;15.48;9.18;;;;;;;8.59;78.25;97016.50;5024788;28;20509;-69
2023/01/09 11:22:48;;;;;;;18.52;10.65;;;;;;;8.58;78.85;97020.34;4967084;28;20035;-69
2023/01/09 11:25:17;;;;;;;16.42;10.80;;;;;;;8.58;78.06;97021.16;4986111;28;20031;-70
2023/01/09 11:27:42;;;;;;;19.08;12.70;;;;;;;8.59;78.60;97014.56;4968198;28;20030;-70
2023/01/09 11:30:18;;;;;;;22.00;15.65;;;;;;;8.58;78.70;97018.44;5019225;28;20179;-69
2023/01/09 11:32:47;;;;;;;19.52;12.60;;;;;;;8.59;78.25;97014.56;5014351;28;20085;-69
2023/01/09 11:35:26;;;;;;;21.33;14.40;;;;;;;8.58;78.65;97012.97;4968561;28;20019;-69
2023/01/09 11:38:05;;;;;;;19.73;13.45;;;;;;;8.61;78.37;97019.72;4976953;28;20034;-69
2023/01/09 11:40:37;;;;;;;17.80;11.25;;;;;;;8.62;78.37;97018.59;4969437;28;20290;-69
2023/01/09 11:43:31;;;;;;;23.55;12.95;;;;;;;8.62;78.47;97016.69;4973541;28;20034;-69
2023/01/09 11:46:00;;;;;;;23.83;14.25;;;;;;;8.69;78.47;97009.94;5013991;28;20032;-70